sensor_id;sensor_type;location;lat;lon;timestamp;P1;durP1;ratioP1;P2;durP2;ratioP2
12968;SDS011;6549;53.128;8.182;2023-08-01T00:02:57;11.00;;;8.38;;
12968;SDS011;6549;53.128;8.182;2023-08-01T00:05:57;9.82;;;7.78;;
12968;SDS011;6549;53.128;8.182;2023-08-01T00:08:58;11.57;;;8.73;;
12968;SDS011;6549;53.128;8.182;2023-08-01T00:11:58;10.85;;;9.40;;
12968;SDS011;6549;53.128;8.182;2023-08-01T00:14:59;9.93;;;8.07;;
12968;SDS011;6549;53.128;8.182;2023-08-01T00:17:59;11.25;;;8.38;;
12968;SDS011;6549;53.128;8.182;2023-08-01T00:20:59;10.40;;;8.75;;
12968;SDS011;6549;53.128;8.182;2023-08-01T00:24:00;12.50;;;9.82;;
12968;SDS011;6549;53.128;8.182;2023-08-01T00:27:00;10.73;;;7.72;;
12968;SDS011;6549;53.128;8.182;2023-08-01T00:30:00;11.45;;;8.75;;
12968;SDS011;6549;53.128;8.182;2023-08-01T00:33:01;10.95;;;9.45;;
12968;SDS011;6549;53.128;8.182;2023-08-01T00:36:01;12.45;;;9.32;;
12968;SDS011;6549;53.128;8.182;2023-08-01T00:39:02;12.02;;;10.50;;
12968;SDS011;6549;53.128;8.182;2023-08-01T00:42:02;10.68;;;9.23;;
12968;SDS011;6549;53.128;8.182;2023-08-01T00:45:03;12.32;;;10.40;;
12968;SDS011;6549;53.128;8.182;2023-08-01T00:48:04;12.95;;;9.27;;
12968;SDS011;6549;53.128;8.182;2023-08-01T00:51:05;15.18;;;11.07;;
12968;SDS011;6549;53.128;8.182;2023-08-01T00:54:08;13.60;;;10.60;;
12968;SDS011;6549;53.128;8.182;2023-08-01T00:57:08;11.68;;;9.52;;
12968;SDS011;6549;53.128;8.182;2023-08-01T01:00:10;13.50;;;10.38;;
12968;SDS011;6549;53.128;8.182;2023-08-01T01:03:10;14.43;;;9.77;;
12968;SDS011;6549;53.128;8.182;2023-08-01T01:06:12;16.10;;;10.60;;
12968;SDS011;6549;53.128;8.182;2023-08-01T01:09:17;12.95;;;9.05;;
12968;SDS011;6549;53.128;8.182;2023-08-01T01:12:19;12.48;;;8.75;;
12968;SDS011;6549;53.128;8.182;2023-08-01T01:15:19;11.95;;;9.20;;
12968;SDS011;6549;53.128;8.182;2023-08-01T01:18:19;13.38;;;8.43;;
12968;SDS011;6549;53.128;8.182;2023-08-01T01:21:33;11.60;;;8.20;;
12968;SDS011;6549;53.128;8.182;2023-08-01T01:25:11;8.90;;;6.50;;
12968;SDS011;6549;53.128;8.182;2023-08-01T01:28:11;10.60;;;7.18;;
12968;SDS011;6549;53.128;8.182;2023-08-01T01:31:14;13.23;;;8.52;;
12968;SDS011;6549;53.128;8.182;2023-08-01T01:34:15;10.30;;;6.35;;
12968;SDS011;6549;53.128;8.182;2023-08-01T01:37:15;14.15;;;8.23;;
12968;SDS011;6549;53.128;8.182;2023-08-01T01:40:16;9.15;;;7.38;;
12968;SDS011;6549;53.128;8.182;2023-08-01T01:43:16;11.02;;;7.60;;
12968;SDS011;6549;53.128;8.182;2023-08-01T01:46:16;10.00;;;7.22;;
12968;SDS011;6549;53.128;8.182;2023-08-01T01:49:17;10.98;;;7.32;;
12968;SDS011;6549;53.128;8.182;2023-08-01T01:52:17;11.38;;;7.45;;
12968;SDS011;6549;53.128;8.182;2023-08-01T01:55:17;13.02;;;7.40;;
12968;SDS011;6549;53.128;8.182;2023-08-01T01:58:18;9.52;;;6.68;;
12968;SDS011;6549;53.128;8.182;2023-08-01T02:01:18;10.73;;;5.40;;
12968;SDS011;6549;53.128;8.182;2023-08-01T02:04:18;7.22;;;4.85;;
12968;SDS011;6549;53.128;8.182;2023-08-01T02:07:19;7.22;;;4.22;;
12968;SDS011;6549;53.128;8.182;2023-08-01T02:10:19;4.95;;;3.28;;
12968;SDS011;6549;53.128;8.182;2023-08-01T02:13:19;5.80;;;3.53;;
12968;SDS011;6549;53.128;8.182;2023-08-01T02:16:20;5.78;;;3.45;;
12968;SDS011;6549;53.128;8.182;2023-08-01T02:19:20;5.32;;;3.00;;
12968;SDS011;6549;53.128;8.182;2023-08-01T02:22:20;6.50;;;3.83;;
12968;SDS011;6549;53.128;8.182;2023-08-01T02:25:21;10.88;;;4.32;;
12968;SDS011;6549;53.128;8.182;2023-08-01T02:28:21;6.57;;;4.07;;
12968;SDS011;6549;53.128;8.182;2023-08-01T02:31:21;7.05;;;4.20;;
12968;SDS011;6549;53.128;8.182;2023-08-01T02:34:22;8.40;;;4.85;;
12968;SDS011;6549;53.128;8.182;2023-08-01T02:37:22;7.88;;;5.50;;
12968;SDS011;6549;53.128;8.182;2023-08-01T02:40:22;8.15;;;4.72;;
12968;SDS011;6549;53.128;8.182;2023-08-01T02:43:23;7.38;;;5.50;;
12968;SDS011;6549;53.128;8.182;2023-08-01T02:46:23;11.05;;;7.65;;
12968;SDS011;6549;53.128;8.182;2023-08-01T02:49:23;9.55;;;6.00;;
12968;SDS011;6549;53.128;8.182;2023-08-01T02:52:24;13.55;;;8.82;;
12968;SDS011;6549;53.128;8.182;2023-08-01T02:55:24;11.95;;;7.70;;
12968;SDS011;6549;53.128;8.182;2023-08-01T02:58:24;12.55;;;9.25;;
12968;SDS011;6549;53.128;8.182;2023-08-01T03:01:24;11.88;;;9.10;;
12968;SDS011;6549;53.128;8.182;2023-08-01T03:04:25;17.00;;;11.48;;
12968;SDS011;6549;53.128;8.182;2023-08-01T03:07:26;16.20;;;10.80;;
12968;SDS011;6549;53.128;8.182;2023-08-01T03:10:26;16.05;;;11.38;;
12968;SDS011;6549;53.128;8.182;2023-08-01T03:13:26;14.25;;;10.27;;
12968;SDS011;6549;53.128;8.182;2023-08-01T03:16:27;15.05;;;10.18;;
12968;SDS011;6549;53.128;8.182;2023-08-01T03:19:27;12.82;;;9.60;;
12968;SDS011;6549;53.128;8.182;2023-08-01T03:22:27;16.23;;;12.07;;
12968;SDS011;6549;53.128;8.182;2023-08-01T03:25:28;15.35;;;10.70;;
12968;SDS011;6549;53.128;8.182;2023-08-01T03:28:28;19.95;;;12.18;;
12968;SDS011;6549;53.128;8.182;2023-08-01T03:31:28;16.02;;;12.00;;
12968;SDS011;6549;53.128;8.182;2023-08-01T03:34:29;15.88;;;11.85;;
12968;SDS011;6549;53.128;8.182;2023-08-01T03:37:29;17.05;;;12.98;;
12968;SDS011;6549;53.128;8.182;2023-08-01T03:40:29;19.90;;;12.88;;
12968;SDS011;6549;53.128;8.182;2023-08-01T03:43:30;15.90;;;11.63;;
12968;SDS011;6549;53.128;8.182;2023-08-01T03:46:30;19.60;;;11.48;;
12968;SDS011;6549;53.128;8.182;2023-08-01T03:49:31;13.55;;;10.65;;
12968;SDS011;6549;53.128;8.182;2023-08-01T03:52:31;11.40;;;9.57;;
12968;SDS011;6549;53.128;8.182;2023-08-01T03:55:31;13.95;;;9.10;;
12968;SDS011;6549;53.128;8.182;2023-08-01T03:58:31;16.80;;;11.70;;
12968;SDS011;6549;53.128;8.182;2023-08-01T04:01:32;13.23;;;9.00;;
12968;SDS011;6549;53.128;8.182;2023-08-01T04:04:32;12.60;;;8.00;;
12968;SDS011;6549;53.128;8.182;2023-08-01T04:07:32;10.93;;;7.72;;
12968;SDS011;6549;53.128;8.182;2023-08-01T04:10:33;11.52;;;6.93;;
12968;SDS011;6549;53.128;8.182;2023-08-01T04:13:33;7.57;;;5.60;;
12968;SDS011;6549;53.128;8.182;2023-08-01T04:16:34;9.68;;;5.25;;
12968;SDS011;6549;53.128;8.182;2023-08-01T04:19:34;8.63;;;6.07;;
12968;SDS011;6549;53.128;8.182;2023-08-01T04:22:34;8.93;;;5.70;;
12968;SDS011;6549;53.128;8.182;2023-08-01T04:25:35;9.98;;;5.70;;
12968;SDS011;6549;53.128;8.182;2023-08-01T04:28:35;8.07;;;5.28;;
12968;SDS011;6549;53.128;8.182;2023-08-01T04:31:36;7.50;;;5.78;;
12968;SDS011;6549;53.128;8.182;2023-08-01T04:34:36;7.43;;;5.25;;
12968;SDS011;6549;53.128;8.182;2023-08-01T04:37:36;8.57;;;6.15;;
12968;SDS011;6549;53.128;8.182;2023-08-01T04:40:37;10.82;;;7.45;;
12968;SDS011;6549;53.128;8.182;2023-08-01T04:43:37;10.00;;;7.20;;
12968;SDS011;6549;53.128;8.182;2023-08-01T04:46:37;10.07;;;6.43;;
12968;SDS011;6549;53.128;8.182;2023-08-01T04:49:38;12.82;;;7.10;;
12968;SDS011;6549;53.128;8.182;2023-08-01T04:52:38;10.70;;;6.60;;
12968;SDS011;6549;53.128;8.182;2023-08-01T04:55:39;10.18;;;5.93;;
12968;SDS011;6549;53.128;8.182;2023-08-01T04:58:40;10.80;;;5.65;;
12968;SDS011;6549;53.128;8.182;2023-08-01T05:01:40;8.25;;;5.18;;
12968;SDS011;6549;53.128;8.182;2023-08-01T05:04:40;8.57;;;6.32;;
12968;SDS011;6549;53.128;8.182;2023-08-01T05:07:40;7.68;;;4.93;;
12968;SDS011;6549;53.128;8.182;2023-08-01T05:10:41;10.13;;;5.65;;
12968;SDS011;6549;53.128;8.182;2023-08-01T05:13:41;8.57;;;5.47;;
12968;SDS011;6549;53.128;8.182;2023-08-01T05:16:41;9.88;;;6.15;;
12968;SDS011;6549;53.128;8.182;2023-08-01T05:19:42;11.10;;;5.22;;
12968;SDS011;6549;53.128;8.182;2023-08-01T05:22:42;10.30;;;6.82;;
12968;SDS011;6549;53.128;8.182;2023-08-01T05:25:42;12.50;;;6.82;;
12968;SDS011;6549;53.128;8.182;2023-08-01T05:28:43;11.32;;;6.93;;
12968;SDS011;6549;53.128;8.182;2023-08-01T05:31:43;9.65;;;6.88;;
12968;SDS011;6549;53.128;8.182;2023-08-01T05:34:43;11.35;;;6.70;;
12968;SDS011;6549;53.128;8.182;2023-08-01T05:37:44;15.30;;;9.05;;
12968;SDS011;6549;53.128;8.182;2023-08-01T05:40:44;16.17;;;8.60;;
12968;SDS011;6549;53.128;8.182;2023-08-01T05:43:44;14.57;;;9.05;;
12968;SDS011;6549;53.128;8.182;2023-08-01T05:46:46;15.13;;;9.80;;
12968;SDS011;6549;53.128;8.182;2023-08-01T05:49:46;14.45;;;9.13;;
12968;SDS011;6549;53.128;8.182;2023-08-01T05:52:47;15.50;;;9.32;;
12968;SDS011;6549;53.128;8.182;2023-08-01T05:55:47;18.33;;;10.00;;
12968;SDS011;6549;53.128;8.182;2023-08-01T05:58:48;19.50;;;11.00;;
12968;SDS011;6549;53.128;8.182;2023-08-01T06:01:48;14.20;;;8.65;;
12968;SDS011;6549;53.128;8.182;2023-08-01T06:04:48;13.27;;;8.07;;
12968;SDS011;6549;53.128;8.182;2023-08-01T06:07:49;11.75;;;7.85;;
12968;SDS011;6549;53.128;8.182;2023-08-01T06:10:49;12.35;;;7.28;;
12968;SDS011;6549;53.128;8.182;2023-08-01T06:13:49;10.93;;;6.95;;
12968;SDS011;6549;53.128;8.182;2023-08-01T06:16:50;9.75;;;6.50;;
12968;SDS011;6549;53.128;8.182;2023-08-01T06:19:50;9.30;;;5.53;;
12968;SDS011;6549;53.128;8.182;2023-08-01T06:22:51;9.32;;;5.53;;
12968;SDS011;6549;53.128;8.182;2023-08-01T06:25:51;9.57;;;5.63;;
12968;SDS011;6549;53.128;8.182;2023-08-01T06:28:52;9.32;;;5.47;;
12968;SDS011;6549;53.128;8.182;2023-08-01T06:31:55;7.40;;;5.35;;
12968;SDS011;6549;53.128;8.182;2023-08-01T06:34:55;7.65;;;4.50;;
12968;SDS011;6549;53.128;8.182;2023-08-01T06:37:56;7.07;;;4.30;;
12968;SDS011;6549;53.128;8.182;2023-08-01T06:40:56;6.38;;;3.70;;
12968;SDS011;6549;53.128;8.182;2023-08-01T06:43:56;7.50;;;3.47;;
12968;SDS011;6549;53.128;8.182;2023-08-01T06:46:57;6.80;;;3.30;;
12968;SDS011;6549;53.128;8.182;2023-08-01T06:49:57;4.80;;;3.22;;
12968;SDS011;6549;53.128;8.182;2023-08-01T06:52:57;8.88;;;3.00;;
12968;SDS011;6549;53.128;8.182;2023-08-01T06:55:58;5.13;;;2.72;;
12968;SDS011;6549;53.128;8.182;2023-08-01T06:58:58;9.25;;;3.17;;
12968;SDS011;6549;53.128;8.182;2023-08-01T07:01:58;7.32;;;2.60;;
12968;SDS011;6549;53.128;8.182;2023-08-01T07:04:58;6.63;;;3.00;;
12968;SDS011;6549;53.128;8.182;2023-08-01T07:07:59;5.35;;;2.67;;
12968;SDS011;6549;53.128;8.182;2023-08-01T07:10:59;4.72;;;2.35;;
12968;SDS011;6549;53.128;8.182;2023-08-01T07:13:59;6.78;;;2.40;;
12968;SDS011;6549;53.128;8.182;2023-08-01T07:17:00;5.88;;;2.47;;
12968;SDS011;6549;53.128;8.182;2023-08-01T07:20:00;6.32;;;2.28;;
12968;SDS011;6549;53.128;8.182;2023-08-01T07:23:00;4.70;;;2.15;;
12968;SDS011;6549;53.128;8.182;2023-08-01T07:26:01;5.30;;;2.08;;
12968;SDS011;6549;53.128;8.182;2023-08-01T07:29:02;5.07;;;2.03;;
12968;SDS011;6549;53.128;8.182;2023-08-01T07:32:02;6.47;;;2.70;;
12968;SDS011;6549;53.128;8.182;2023-08-01T07:35:03;8.63;;;2.65;;
12968;SDS011;6549;53.128;8.182;2023-08-01T07:38:06;6.63;;;2.50;;
12968;SDS011;6549;53.128;8.182;2023-08-01T07:41:06;4.65;;;2.42;;
12968;SDS011;6549;53.128;8.182;2023-08-01T07:44:07;4.40;;;2.47;;
12968;SDS011;6549;53.128;8.182;2023-08-01T07:47:07;8.70;;;2.72;;
12968;SDS011;6549;53.128;8.182;2023-08-01T07:50:08;7.88;;;2.75;;
12968;SDS011;6549;53.128;8.182;2023-08-01T07:53:08;3.90;;;2.35;;
12968;SDS011;6549;53.128;8.182;2023-08-01T07:56:08;4.72;;;2.53;;
12968;SDS011;6549;53.128;8.182;2023-08-01T07:59:09;4.72;;;2.03;;
12968;SDS011;6549;53.128;8.182;2023-08-01T08:02:10;4.53;;;2.05;;
12968;SDS011;6549;53.128;8.182;2023-08-01T08:05:10;3.90;;;1.95;;
12968;SDS011;6549;53.128;8.182;2023-08-01T08:08:11;3.78;;;1.70;;
12968;SDS011;6549;53.128;8.182;2023-08-01T08:11:11;3.40;;;1.60;;
12968;SDS011;6549;53.128;8.182;2023-08-01T08:14:12;3.42;;;1.80;;
12968;SDS011;6549;53.128;8.182;2023-08-01T08:20:15;5.38;;;1.60;;
12968;SDS011;6549;53.128;8.182;2023-08-01T08:23:15;2.45;;;1.77;;
12968;SDS011;6549;53.128;8.182;2023-08-01T08:26:16;4.80;;;1.85;;
12968;SDS011;6549;53.128;8.182;2023-08-01T08:29:16;3.15;;;1.55;;
12968;SDS011;6549;53.128;8.182;2023-08-01T08:32:16;3.08;;;1.60;;
12968;SDS011;6549;53.128;8.182;2023-08-01T08:35:17;5.60;;;1.83;;
12968;SDS011;6549;53.128;8.182;2023-08-01T08:38:17;3.60;;;1.77;;
12968;SDS011;6549;53.128;8.182;2023-08-01T08:41:23;2.50;;;1.33;;
12968;SDS011;6549;53.128;8.182;2023-08-01T08:44:26;3.85;;;1.73;;
12968;SDS011;6549;53.128;8.182;2023-08-01T08:47:30;2.40;;;1.50;;
12968;SDS011;6549;53.128;8.182;2023-08-01T08:50:33;3.22;;;1.50;;
12968;SDS011;6549;53.128;8.182;2023-08-01T08:53:35;2.97;;;1.52;;
12968;SDS011;6549;53.128;8.182;2023-08-01T08:56:35;3.08;;;1.45;;
12968;SDS011;6549;53.128;8.182;2023-08-01T08:59:36;2.28;;;1.20;;
12968;SDS011;6549;53.128;8.182;2023-08-01T09:02:37;3.40;;;1.43;;
12968;SDS011;6549;53.128;8.182;2023-08-01T09:05:45;2.90;;;1.40;;
12968;SDS011;6549;53.128;8.182;2023-08-01T09:08:49;3.10;;;1.48;;
12968;SDS011;6549;53.128;8.182;2023-08-01T09:11:54;2.97;;;1.33;;
12968;SDS011;6549;53.128;8.182;2023-08-01T09:14:57;2.80;;;1.27;;
12968;SDS011;6549;53.128;8.182;2023-08-01T09:17:58;3.28;;;1.48;;
12968;SDS011;6549;53.128;8.182;2023-08-01T09:24:14;3.97;;;1.55;;
12968;SDS011;6549;53.128;8.182;2023-08-01T09:27:15;4.72;;;1.60;;
12968;SDS011;6549;53.128;8.182;2023-08-01T09:30:16;3.65;;;1.70;;
12968;SDS011;6549;53.128;8.182;2023-08-01T09:33:17;4.45;;;1.60;;
12968;SDS011;6549;53.128;8.182;2023-08-01T09:36:21;3.78;;;1.60;;
12968;SDS011;6549;53.128;8.182;2023-08-01T09:39:22;4.00;;;1.60;;
12968;SDS011;6549;53.128;8.182;2023-08-01T09:42:23;5.00;;;1.70;;
12968;SDS011;6549;53.128;8.182;2023-08-01T09:45:23;3.55;;;1.60;;
12968;SDS011;6549;53.128;8.182;2023-08-01T09:48:27;3.85;;;1.63;;
12968;SDS011;6549;53.128;8.182;2023-08-01T09:51:28;3.88;;;1.77;;
12968;SDS011;6549;53.128;8.182;2023-08-01T09:54:29;2.08;;;1.55;;
12968;SDS011;6549;53.128;8.182;2023-08-01T09:57:29;4.72;;;1.90;;
12968;SDS011;6549;53.128;8.182;2023-08-01T10:00:30;3.03;;;1.55;;
12968;SDS011;6549;53.128;8.182;2023-08-01T10:03:30;3.85;;;1.80;;
12968;SDS011;6549;53.128;8.182;2023-08-01T10:06:32;2.75;;;1.60;;
12968;SDS011;6549;53.128;8.182;2023-08-01T10:09:34;4.00;;;1.73;;
12968;SDS011;6549;53.128;8.182;2023-08-01T10:12:36;5.07;;;1.98;;
12968;SDS011;6549;53.128;8.182;2023-08-01T10:15:37;4.15;;;1.70;;
12968;SDS011;6549;53.128;8.182;2023-08-01T10:18:38;4.15;;;1.50;;
12968;SDS011;6549;53.128;8.182;2023-08-01T10:21:40;3.35;;;1.60;;
12968;SDS011;6549;53.128;8.182;2023-08-01T10:24:42;4.05;;;1.40;;
12968;SDS011;6549;53.128;8.182;2023-08-01T10:27:44;1.98;;;1.27;;
12968;SDS011;6549;53.128;8.182;2023-08-01T10:30:44;5.28;;;1.50;;
12968;SDS011;6549;53.128;8.182;2023-08-01T10:33:45;2.67;;;1.38;;
12968;SDS011;6549;53.128;8.182;2023-08-01T10:36:56;3.00;;;1.30;;
12968;SDS011;6549;53.128;8.182;2023-08-01T10:39:58;5.95;;;1.50;;
12968;SDS011;6549;53.128;8.182;2023-08-01T10:42:59;1.87;;;1.07;;
12968;SDS011;6549;53.128;8.182;2023-08-01T10:46:00;3.03;;;1.20;;
12968;SDS011;6549;53.128;8.182;2023-08-01T10:49:04;1.10;;;1.00;;
12968;SDS011;6549;53.128;8.182;2023-08-01T10:52:26;3.90;;;1.20;;
12968;SDS011;6549;53.128;8.182;2023-08-01T10:55:37;2.78;;;1.02;;
12968;SDS011;6549;53.128;8.182;2023-08-01T10:58:42;1.83;;;1.10;;
12968;SDS011;6549;53.128;8.182;2023-08-01T11:01:46;1.50;;;1.02;;
12968;SDS011;6549;53.128;8.182;2023-08-01T11:05:04;3.80;;;1.15;;
12968;SDS011;6549;53.128;8.182;2023-08-01T11:08:06;1.77;;;1.10;;
12968;SDS011;6549;53.128;8.182;2023-08-01T11:11:07;2.50;;;1.30;;
12968;SDS011;6549;53.128;8.182;2023-08-01T11:14:11;5.00;;;1.40;;
12968;SDS011;6549;53.128;8.182;2023-08-01T11:17:12;2.60;;;1.13;;
12968;SDS011;6549;53.128;8.182;2023-08-01T11:20:13;2.65;;;1.35;;
12968;SDS011;6549;53.128;8.182;2023-08-01T11:23:14;2.42;;;1.30;;
12968;SDS011;6549;53.128;8.182;2023-08-01T11:26:14;2.75;;;1.42;;
12968;SDS011;6549;53.128;8.182;2023-08-01T11:29:14;3.30;;;1.45;;
12968;SDS011;6549;53.128;8.182;2023-08-01T11:32:16;3.33;;;1.30;;
12968;SDS011;6549;53.128;8.182;2023-08-01T11:35:19;3.53;;;1.42;;
12968;SDS011;6549;53.128;8.182;2023-08-01T11:38:20;1.65;;;1.05;;
12968;SDS011;6549;53.128;8.182;2023-08-01T11:41:22;3.33;;;1.40;;
12968;SDS011;6549;53.128;8.182;2023-08-01T11:44:24;2.55;;;1.05;;
12968;SDS011;6549;53.128;8.182;2023-08-01T11:47:24;2.50;;;1.15;;
12968;SDS011;6549;53.128;8.182;2023-08-01T11:50:25;4.15;;;1.30;;
12968;SDS011;6549;53.128;8.182;2023-08-01T11:53:26;4.32;;;1.30;;
12968;SDS011;6549;53.128;8.182;2023-08-01T11:56:28;2.90;;;1.25;;
12968;SDS011;6549;53.128;8.182;2023-08-01T11:59:29;2.60;;;1.45;;
12968;SDS011;6549;53.128;8.182;2023-08-01T12:02:29;2.60;;;1.30;;
12968;SDS011;6549;53.128;8.182;2023-08-01T12:05:30;3.58;;;1.42;;
12968;SDS011;6549;53.128;8.182;2023-08-01T12:08:31;2.45;;;1.10;;
12968;SDS011;6549;53.128;8.182;2023-08-01T12:11:34;2.25;;;0.95;;
12968;SDS011;6549;53.128;8.182;2023-08-01T12:14:41;3.53;;;1.35;;
12968;SDS011;6549;53.128;8.182;2023-08-01T12:17:42;3.47;;;1.17;;
12968;SDS011;6549;53.128;8.182;2023-08-01T12:20:42;1.33;;;1.00;;
12968;SDS011;6549;53.128;8.182;2023-08-01T12:23:42;3.75;;;1.10;;
12968;SDS011;6549;53.128;8.182;2023-08-01T12:26:43;4.05;;;1.40;;
12968;SDS011;6549;53.128;8.182;2023-08-01T12:29:43;3.75;;;1.40;;
12968;SDS011;6549;53.128;8.182;2023-08-01T12:32:43;4.45;;;1.42;;
12968;SDS011;6549;53.128;8.182;2023-08-01T12:35:44;3.20;;;1.42;;
12968;SDS011;6549;53.128;8.182;2023-08-01T12:38:44;4.55;;;1.50;;
12968;SDS011;6549;53.128;8.182;2023-08-01T12:41:45;3.35;;;1.40;;
12968;SDS011;6549;53.128;8.182;2023-08-01T12:44:45;2.75;;;1.40;;
12968;SDS011;6549;53.128;8.182;2023-08-01T12:47:48;3.30;;;1.48;;
12968;SDS011;6549;53.128;8.182;2023-08-01T12:50:49;3.60;;;1.65;;
12968;SDS011;6549;53.128;8.182;2023-08-01T12:53:49;3.22;;;1.48;;
12968;SDS011;6549;53.128;8.182;2023-08-01T12:56:50;3.78;;;1.70;;
12968;SDS011;6549;53.128;8.182;2023-08-01T12:59:50;4.18;;;1.50;;
12968;SDS011;6549;53.128;8.182;2023-08-01T13:02:50;3.38;;;1.45;;
12968;SDS011;6549;53.128;8.182;2023-08-01T13:05:51;4.40;;;1.63;;
12968;SDS011;6549;53.128;8.182;2023-08-01T13:08:52;3.75;;;1.45;;
12968;SDS011;6549;53.128;8.182;2023-08-01T13:11:53;3.60;;;1.80;;
12968;SDS011;6549;53.128;8.182;2023-08-01T13:14:53;5.32;;;1.65;;
12968;SDS011;6549;53.128;8.182;2023-08-01T13:17:54;3.80;;;1.50;;
12968;SDS011;6549;53.128;8.182;2023-08-01T13:20:56;2.67;;;1.30;;
12968;SDS011;6549;53.128;8.182;2023-08-01T13:23:57;2.83;;;1.40;;
12968;SDS011;6549;53.128;8.182;2023-08-01T13:26:58;3.03;;;1.20;;
12968;SDS011;6549;53.128;8.182;2023-08-01T13:29:58;5.07;;;1.60;;
12968;SDS011;6549;53.128;8.182;2023-08-01T13:32:59;7.53;;;1.73;;
12968;SDS011;6549;53.128;8.182;2023-08-01T13:36:00;4.72;;;1.65;;
12968;SDS011;6549;53.128;8.182;2023-08-01T13:39:00;2.33;;;1.42;;
12968;SDS011;6549;53.128;8.182;2023-08-01T13:42:00;3.22;;;1.30;;
12968;SDS011;6549;53.128;8.182;2023-08-01T13:45:01;3.17;;;1.30;;
12968;SDS011;6549;53.128;8.182;2023-08-01T13:48:01;3.17;;;1.23;;
12968;SDS011;6549;53.128;8.182;2023-08-01T13:51:01;2.95;;;1.38;;
12968;SDS011;6549;53.128;8.182;2023-08-01T13:54:02;3.47;;;1.38;;
12968;SDS011;6549;53.128;8.182;2023-08-01T13:57:02;4.05;;;1.35;;
12968;SDS011;6549;53.128;8.182;2023-08-01T14:00:03;2.60;;;1.15;;
12968;SDS011;6549;53.128;8.182;2023-08-01T14:03:04;4.20;;;1.40;;
12968;SDS011;6549;53.128;8.182;2023-08-01T14:06:08;2.90;;;1.40;;
12968;SDS011;6549;53.128;8.182;2023-08-01T14:09:10;3.97;;;1.63;;
12968;SDS011;6549;53.128;8.182;2023-08-01T14:12:10;3.17;;;1.52;;
12968;SDS011;6549;53.128;8.182;2023-08-01T14:15:11;4.13;;;1.48;;
12968;SDS011;6549;53.128;8.182;2023-08-01T14:18:11;3.10;;;1.35;;
12968;SDS011;6549;53.128;8.182;2023-08-01T14:21:11;4.90;;;1.40;;
12968;SDS011;6549;53.128;8.182;2023-08-01T14:24:12;2.90;;;1.30;;
12968;SDS011;6549;53.128;8.182;2023-08-01T14:27:12;3.83;;;1.50;;
12968;SDS011;6549;53.128;8.182;2023-08-01T14:30:12;5.32;;;1.70;;
12968;SDS011;6549;53.128;8.182;2023-08-01T14:33:12;4.15;;;1.60;;
12968;SDS011;6549;53.128;8.182;2023-08-01T14:36:14;6.20;;;1.63;;
12968;SDS011;6549;53.128;8.182;2023-08-01T14:39:15;3.60;;;1.77;;
12968;SDS011;6549;53.128;8.182;2023-08-01T14:42:15;3.90;;;1.67;;
12968;SDS011;6549;53.128;8.182;2023-08-01T14:45:15;4.68;;;1.60;;
12968;SDS011;6549;53.128;8.182;2023-08-01T14:48:16;3.13;;;1.63;;
12968;SDS011;6549;53.128;8.182;2023-08-01T14:51:16;4.75;;;1.60;;
12968;SDS011;6549;53.128;8.182;2023-08-01T14:54:17;4.18;;;1.58;;
12968;SDS011;6549;53.128;8.182;2023-08-01T14:57:17;4.82;;;1.80;;
12968;SDS011;6549;53.128;8.182;2023-08-01T15:00:17;5.45;;;1.70;;
12968;SDS011;6549;53.128;8.182;2023-08-01T15:03:18;3.53;;;1.40;;
12968;SDS011;6549;53.128;8.182;2023-08-01T15:06:18;4.03;;;1.58;;
12968;SDS011;6549;53.128;8.182;2023-08-01T15:09:18;3.53;;;1.40;;
12968;SDS011;6549;53.128;8.182;2023-08-01T15:12:19;3.13;;;1.55;;
12968;SDS011;6549;53.128;8.182;2023-08-01T15:15:26;4.05;;;1.40;;
12968;SDS011;6549;53.128;8.182;2023-08-01T15:18:26;2.97;;;1.50;;
12968;SDS011;6549;53.128;8.182;2023-08-01T15:21:27;2.72;;;1.25;;
12968;SDS011;6549;53.128;8.182;2023-08-01T15:24:29;4.10;;;1.30;;
12968;SDS011;6549;53.128;8.182;2023-08-01T15:27:30;3.15;;;1.30;;
12968;SDS011;6549;53.128;8.182;2023-08-01T15:30:30;4.18;;;1.60;;
12968;SDS011;6549;53.128;8.182;2023-08-01T15:33:33;4.65;;;1.67;;
12968;SDS011;6549;53.128;8.182;2023-08-01T15:36:35;3.72;;;1.70;;
12968;SDS011;6549;53.128;8.182;2023-08-01T15:39:35;4.75;;;1.60;;
12968;SDS011;6549;53.128;8.182;2023-08-01T15:42:36;4.47;;;1.35;;
12968;SDS011;6549;53.128;8.182;2023-08-01T15:45:36;3.55;;;1.60;;
12968;SDS011;6549;53.128;8.182;2023-08-01T15:48:37;4.72;;;1.40;;
12968;SDS011;6549;53.128;8.182;2023-08-01T15:51:37;4.88;;;1.42;;
12968;SDS011;6549;53.128;8.182;2023-08-01T15:54:38;4.78;;;1.50;;
12968;SDS011;6549;53.128;8.182;2023-08-01T15:57:38;1.45;;;1.10;;
12968;SDS011;6549;53.128;8.182;2023-08-01T16:00:39;4.35;;;1.90;;
12968;SDS011;6549;53.128;8.182;2023-08-01T16:03:39;3.15;;;1.38;;
12968;SDS011;6549;53.128;8.182;2023-08-01T16:06:40;5.20;;;1.52;;
12968;SDS011;6549;53.128;8.182;2023-08-01T16:09:41;3.95;;;1.35;;
12968;SDS011;6549;53.128;8.182;2023-08-01T16:12:41;3.05;;;1.30;;
12968;SDS011;6549;53.128;8.182;2023-08-01T16:15:41;3.35;;;1.23;;
12968;SDS011;6549;53.128;8.182;2023-08-01T16:18:42;3.17;;;1.20;;
12968;SDS011;6549;53.128;8.182;2023-08-01T16:21:43;3.50;;;1.85;;
12968;SDS011;6549;53.128;8.182;2023-08-01T16:24:44;5.32;;;2.05;;
12968;SDS011;6549;53.128;8.182;2023-08-01T16:27:44;3.55;;;1.50;;
12968;SDS011;6549;53.128;8.182;2023-08-01T16:30:44;1.83;;;1.10;;
12968;SDS011;6549;53.128;8.182;2023-08-01T16:33:45;3.38;;;1.73;;
12968;SDS011;6549;53.128;8.182;2023-08-01T16:36:45;4.72;;;1.70;;
12968;SDS011;6549;53.128;8.182;2023-08-01T16:39:45;1.10;;;1.00;;
12968;SDS011;6549;53.128;8.182;2023-08-01T16:42:46;1.60;;;1.20;;
12968;SDS011;6549;53.128;8.182;2023-08-01T16:45:46;2.85;;;2.00;;
12968;SDS011;6549;53.128;8.182;2023-08-01T16:48:46;1.92;;;1.30;;
12968;SDS011;6549;53.128;8.182;2023-08-01T16:51:47;1.80;;;1.20;;
12968;SDS011;6549;53.128;8.182;2023-08-01T16:54:47;2.38;;;1.10;;
12968;SDS011;6549;53.128;8.182;2023-08-01T16:57:47;1.75;;;1.00;;
12968;SDS011;6549;53.128;8.182;2023-08-01T17:00:51;2.00;;;1.33;;
12968;SDS011;6549;53.128;8.182;2023-08-01T17:03:51;2.38;;;1.30;;
12968;SDS011;6549;53.128;8.182;2023-08-01T17:06:53;3.73;;;1.37;;
12968;SDS011;6549;53.128;8.182;2023-08-01T17:09:55;4.60;;;1.40;;
12968;SDS011;6549;53.128;8.182;2023-08-01T17:12:57;2.80;;;1.23;;
12968;SDS011;6549;53.128;8.182;2023-08-01T17:15:57;4.18;;;1.30;;
12968;SDS011;6549;53.128;8.182;2023-08-01T17:18:58;4.47;;;1.55;;
12968;SDS011;6549;53.128;8.182;2023-08-01T17:21:58;2.25;;;1.23;;
12968;SDS011;6549;53.128;8.182;2023-08-01T17:24:58;2.97;;;1.33;;
12968;SDS011;6549;53.128;8.182;2023-08-01T17:27:59;3.20;;;1.40;;
12968;SDS011;6549;53.128;8.182;2023-08-01T17:31:05;2.97;;;1.38;;
12968;SDS011;6549;53.128;8.182;2023-08-01T17:34:06;2.97;;;1.35;;
12968;SDS011;6549;53.128;8.182;2023-08-01T17:37:07;2.03;;;1.40;;
12968;SDS011;6549;53.128;8.182;2023-08-01T17:40:07;3.83;;;1.38;;
12968;SDS011;6549;53.128;8.182;2023-08-01T17:43:08;3.72;;;1.60;;
12968;SDS011;6549;53.128;8.182;2023-08-01T17:46:09;3.58;;;1.50;;
12968;SDS011;6549;53.128;8.182;2023-08-01T17:49:09;1.45;;;1.27;;
12968;SDS011;6549;53.128;8.182;2023-08-01T17:52:09;2.22;;;1.38;;
12968;SDS011;6549;53.128;8.182;2023-08-01T17:55:10;2.40;;;1.38;;
12968;SDS011;6549;53.128;8.182;2023-08-01T17:58:10;4.07;;;1.58;;
12968;SDS011;6549;53.128;8.182;2023-08-01T18:01:11;4.53;;;1.60;;
12968;SDS011;6549;53.128;8.182;2023-08-01T18:04:11;3.30;;;1.50;;
12968;SDS011;6549;53.128;8.182;2023-08-01T18:07:11;4.78;;;1.58;;
12968;SDS011;6549;53.128;8.182;2023-08-01T18:10:12;4.85;;;1.63;;
12968;SDS011;6549;53.128;8.182;2023-08-01T18:13:12;2.95;;;1.40;;
12968;SDS011;6549;53.128;8.182;2023-08-01T18:16:19;1.40;;;1.20;;
12968;SDS011;6549;53.128;8.182;2023-08-01T18:19:21;3.60;;;1.60;;
12968;SDS011;6549;53.128;8.182;2023-08-01T18:22:21;3.53;;;1.50;;
12968;SDS011;6549;53.128;8.182;2023-08-01T18:25:21;3.85;;;1.50;;
12968;SDS011;6549;53.128;8.182;2023-08-01T18:28:22;2.78;;;1.40;;
12968;SDS011;6549;53.128;8.182;2023-08-01T18:31:22;2.88;;;1.48;;